createdAt,value
2019-02-22T00:02:51.683Z,152.67
2019-02-22T00:12:57.285Z,159.63
2019-02-22T00:23:02.774Z,165.60
2019-02-22T00:33:08.272Z,174.60
2019-02-22T00:43:13.754Z,151.77
2019-02-22T00:53:19.235Z,174.17
2019-02-22T01:03:24.736Z,175.03
2019-02-22T01:13:30.350Z,136.47
2019-02-22T01:23:35.915Z,142.23
2019-02-22T01:33:41.838Z,144.40
2019-02-22T01:43:47.419Z,154.73
2019-02-22T01:53:54.085Z,135.80
2019-02-22T02:03:59.768Z,149.83
2019-02-22T02:14:05.344Z,140.27
2019-02-22T02:24:10.885Z,157.07
2019-02-22T02:34:16.399Z,130.23
2019-02-22T02:44:22.111Z,92.17
2019-02-22T02:54:27.847Z,76.93
2019-02-22T03:04:33.311Z,79.33
2019-02-22T03:14:39.175Z,77.03
2019-02-22T03:24:44.720Z,76.63
2019-02-22T03:34:50.292Z,66.00
2019-02-22T03:44:55.776Z,83.20
2019-02-22T03:55:01.474Z,103.53
2019-02-22T04:05:08.633Z,112.57
2019-02-22T04:15:14.112Z,137.60
2019-02-22T04:25:23.311Z,122.87
2019-02-22T04:35:28.889Z,133.33
2019-02-22T04:45:34.383Z,91.70
2019-02-22T04:55:39.933Z,63.90
2019-02-22T05:05:45.671Z,60.10
2019-02-22T05:15:51.191Z,29.07
2019-02-22T05:26:16.073Z,32.97
2019-02-22T05:36:21.980Z,27.40
2019-02-22T05:46:27.492Z,36.67
2019-02-22T05:56:39.948Z,22.87
2019-02-22T06:06:54.397Z,24.70
2019-02-22T06:16:59.887Z,42.70
2019-02-22T06:27:06.426Z,63.90
2019-02-22T06:37:11.878Z,28.33
2019-02-22T06:47:17.351Z,21.23
2019-02-22T06:57:22.838Z,25.20
2019-02-22T07:07:28.322Z,33.57
2019-02-22T07:17:33.913Z,25.50
2019-02-22T07:27:39.377Z,24.27
2019-02-22T07:37:44.901Z,28.43
2019-02-22T07:47:50.436Z,32.53
2019-02-22T07:57:56.037Z,27.13
2019-02-22T08:08:01.494Z,18.90
2019-02-22T08:18:06.971Z,37.23
2019-02-22T08:28:12.439Z,66.77
2019-02-22T08:38:23.591Z,25.87
2019-02-22T08:48:30.371Z,29.60
2019-02-22T08:58:35.902Z,43.40
2019-02-22T09:08:41.365Z,54.03
2019-02-22T09:18:47.047Z,34.70
2019-02-22T09:28:55.408Z,51.83
2019-02-22T09:38:59.776Z,48.83
2019-02-22T09:49:05.362Z,58.67
2019-02-22T09:59:10.869Z,63.60
2019-02-22T10:09:16.365Z,50.27
2019-02-22T10:19:22.360Z,56.73
2019-02-22T10:29:28.906Z,19.47
2019-02-22T10:39:35.009Z,32.43
2019-02-22T10:49:40.640Z,20.70
2019-02-22T10:59:46.239Z,21.80
2019-02-22T11:09:52.795Z,28.40
2019-02-22T11:19:58.260Z,19.13
2019-02-22T11:30:03.770Z,15.97
2019-02-22T11:40:10.880Z,17.93
2019-02-22T11:50:16.567Z,30.93
2019-02-22T12:00:25.193Z,26.10
2019-02-22T12:10:30.847Z,25.17
2019-02-22T12:20:36.312Z,29.83
2019-02-22T12:30:41.913Z,34.43
2019-02-22T12:40:47.550Z,40.67
2019-02-22T12:50:53.168Z,38.00
2019-02-22T13:00:58.752Z,26.97
2019-02-22T13:11:04.518Z,24.10
2019-02-22T13:21:09.981Z,15.67
2019-02-22T13:31:15.469Z,14.03
2019-02-22T13:41:20.936Z,32.47
2019-02-22T13:51:26.403Z,23.43
2019-02-22T14:01:32.873Z,24.20
2019-02-22T14:11:38.544Z,12.30
2019-02-22T14:21:44.330Z,76.30
2019-02-22T14:31:50.140Z,13.13
2019-02-22T14:41:57.320Z,20.93
2019-02-22T14:52:02.886Z,22.40
2019-02-22T15:02:08.752Z,29.60
2019-02-22T15:12:14.642Z,22.13
2019-02-22T15:22:22.172Z,23.87
2019-02-22T15:32:27.846Z,33.63
2019-02-22T15:42:33.522Z,39.13
2019-02-22T15:52:39.311Z,45.17
2019-02-22T16:02:45.133Z,45.23
2019-02-22T16:12:50.940Z,40.63
2019-02-22T16:22:56.847Z,44.03
2019-02-22T16:33:02.760Z,56.73
2019-02-22T16:43:08.816Z,55.57
2019-02-22T16:53:20.708Z,51.60
2019-02-22T17:03:26.522Z,50.80
2019-02-22T17:13:32.634Z,51.73
2019-02-22T17:23:38.562Z,43.27
2019-02-22T17:33:44.462Z,41.30
2019-02-22T17:43:50.153Z,34.57
2019-02-22T17:53:56.174Z,41.07
2019-02-22T18:04:02.245Z,71.93
2019-02-22T18:14:08.153Z,56.97
2019-02-22T18:24:14.005Z,56.83
2019-02-22T18:34:20.035Z,43.77
2019-02-22T18:44:25.640Z,66.80
2019-02-22T18:54:31.414Z,55.50
2019-02-22T19:04:37.367Z,49.33
2019-02-22T19:14:43.243Z,66.43
2019-02-22T19:24:49.285Z,54.20
2019-02-22T19:34:55.397Z,74.80
2019-02-22T19:45:01.473Z,80.67
2019-02-22T19:55:10.918Z,39.53
2019-02-22T20:05:17.177Z,67.60
2019-02-22T20:15:23.205Z,92.83
2019-02-22T20:25:29.279Z,78.17
2019-02-22T20:35:35.271Z,66.77
2019-02-22T20:45:41.130Z,65.50
2019-02-22T20:55:47.018Z,49.60
2019-02-22T21:05:52.939Z,53.33
2019-02-22T21:15:58.732Z,58.87
2019-02-22T21:26:04.412Z,49.93
2019-02-22T21:36:10.151Z,54.37
2019-02-22T21:46:15.913Z,53.97
2019-02-22T21:56:21.645Z,46.23
2019-02-22T22:06:27.365Z,37.53
2019-02-22T22:16:33.781Z,39.43
2019-02-22T22:26:40.092Z,45.03
2019-02-22T22:36:45.593Z,42.27
2019-02-22T22:46:51.156Z,48.13
2019-02-22T22:56:56.712Z,41.03
2019-02-22T23:07:02.253Z,51.77
2019-02-22T23:17:07.816Z,54.97
2019-02-22T23:27:13.279Z,62.83
2019-02-22T23:37:18.724Z,61.00
2019-02-22T23:47:25.241Z,84.13
2019-02-22T23:57:30.718Z,63.13
